Observation data for Muleshoe on 06/21/2019      Previous  Date       Current Mesonet Observations  Soil Data  Daily Summary Page  Observations in Plain Language
KMUS 210500Z 20011KT 22/04 A2979 RMK A01 T02220043  RH  032%=      5-min Rain = 0
KMUS 210505Z 20010KT 22/04 A2979 RMK A01 T02230043  RH  032%=      5-min Rain = 0
KMUS 210510Z 20010KT 22/04 A2978 RMK A01 T02220042  RH  032%=      5-min Rain = 0
KMUS 210515Z 20011KT 22/04 A2978 RMK A01 T02220040  RH  031%=      5-min Rain = 0
KMUS 210520Z 20012KT 22/04 A2978 RMK A01 T02230036  RH  030%=      5-min Rain = 0
KMUS 210525Z 20012KT 23/03 A2978 RMK A01 T02250032  RH  029%=      5-min Rain = 0
KMUS 210530Z 20012KT 23/03 A2978 RMK A01 T02260029  RH  028%=      5-min Rain = 0
KMUS 210535Z 21012G17KT 23/03 A2978 RMK A01 T02260027  RH  027%=      5-min Rain = 0
KMUS 210540Z 20015KT 23/01 A2978 RMK A01 T02320014  RH  024%=      5-min Rain = 0
KMUS 210545Z 21013KT 24/01 A2978 RMK A01 T02380008  RH  022%=      5-min Rain = 0
KMUS 210550Z 21013KT 23/01 A2978 RMK A01 T02340010  RH  023%=      5-min Rain = 0
KMUS 210555Z 21013KT 24/01 A2978 RMK A01 T02350006  RH  022%=      5-min Rain = 0
KMUS 210600Z 21013G18KT 24/00 A2978 RMK A01 T02350003  RH  022%=      5-min Rain = 0
KMUS 210605Z 21011KT 23/01 A2978 RMK A01 T02310007  RH  023%=      5-min Rain = 0
KMUS 210610Z 21011KT 23/01 A2978 RMK A01 T02260011  RH  024%=      5-min Rain = 0
KMUS 210615Z 21012KT 22/01 A2978 RMK A01 T02220011  RH  025%=      5-min Rain = 0
KMUS 210620Z 21012G17KT 22/01 A2978 RMK A01 T02220009  RH  025%=      5-min Rain = 0
KMUS 210625Z 21012KT 22/01 A2978 RMK A01 T02200009  RH  025%=      5-min Rain = 0
KMUS 210630Z 21011KT 22/01 A2978 RMK A01 T02160012  RH  026%=      5-min Rain = 0
KMUS 210635Z 21010KT 21/01 A2978 RMK A01 T02120013  RH  027%=      5-min Rain = 0
KMUS 210640Z 21010KT 21/01 A2978 RMK A01 T02090013  RH  027%=      5-min Rain = 0
KMUS 210645Z 21010KT 21/01 A2978 RMK A01 T02060014  RH  028%=      5-min Rain = 0
KMUS 210650Z 21010KT 21/01 A2978 RMK A01 T02050011  RH  028%=      5-min Rain = 0
KMUS 210655Z 21009KT 21/01 A2978 RMK A01 T02050012  RH  028%=      5-min Rain = 0
KMUS 210700Z 21007KT 20/02 A2978 RMK A01 T01990016  RH  030%=      5-min Rain = 0
KMUS 210705Z 22006KT 19/02 A2978 RMK A01 T01910019  RH  032%=      5-min Rain = 0
KMUS 210710Z 22005KT 18/02 A2978 RMK A01 T01840024  RH  035%=      5-min Rain = 0
KMUS 210715Z 24004KT 18/03 A2978 RMK A01 T01790027  RH  037%=      5-min Rain = 0
KMUS 210720Z 23005KT 18/03 A2978 RMK A01 T01760031  RH  039%=      5-min Rain = 0
KMUS 210725Z 22007KT 17/04 A2978 RMK A01 T01690039  RH  043%=      5-min Rain = 0
KMUS 210730Z 22007KT 17/04 A2978 RMK A01 T01670036  RH  042%=      5-min Rain = 0
KMUS 210735Z 22006KT 17/04 A2978 RMK A01 T01670035  RH  042%=      5-min Rain = 0
KMUS 210740Z 22006KT 17/04 A2978 RMK A01 T01650036  RH  043%=      5-min Rain = 0
KMUS 210745Z 22006KT 16/04 A2978 RMK A01 T01640035  RH  043%=      5-min Rain = 0
KMUS 210750Z 22006KT 16/04 A2978 RMK A01 T01640035  RH  043%=      5-min Rain = 0
KMUS 210755Z 23006KT 17/03 A2978 RMK A01 T01660032  RH  041%=      5-min Rain = 0
KMUS 210800Z 23005KT 17/04 A2977 RMK A01 T01660035  RH  042%=      5-min Rain = 0
KMUS 210805Z 23005KT 16/04 A2978 RMK A01 T01620037  RH  044%=      5-min Rain = 0
KMUS 210810Z 24005KT 16/04 A2978 RMK A01 T01590043  RH  047%=      5-min Rain = 0
KMUS 210815Z 25005KT 16/05 A2978 RMK A01 T01560045  RH  049%=      5-min Rain = 0
KMUS 210820Z 26006KT 15/05 A2978 RMK A01 T01530048  RH  051%=      5-min Rain = 0
KMUS 210825Z 25006KT 15/05 A2978 RMK A01 T01520052  RH  052%=      5-min Rain = 0
KMUS 210830Z 26004KT 15/06 A2978 RMK A01 T01490057  RH  055%=      5-min Rain = 0
KMUS 210835Z 26004KT 14/06 A2978 RMK A01 T01430060  RH  059%=      5-min Rain = 0
KMUS 210840Z 26005KT 14/06 A2978 RMK A01 T01410055  RH  057%=      5-min Rain = 0
KMUS 210845Z 26006KT 14/06 A2978 RMK A01 T01440059  RH  058%=      5-min Rain = 0
KMUS 210850Z 25006KT 14/07 A2978 RMK A01 T01400065  RH  062%=      5-min Rain = 0
KMUS 210855Z 25007KT 14/06 A2978 RMK A01 T01360064  RH  063%=      5-min Rain = 0
KMUS 210900Z 26006KT 14/06 A2978 RMK A01 T01370064  RH  063%=      5-min Rain = 0
KMUS 210905Z 27005KT 14/06 A2978 RMK A01 T01370063  RH  062%=      5-min Rain = 0
KMUS 210910Z 28005KT 14/07 A2978 RMK A01 T01360068  RH  065%=      5-min Rain = 0
KMUS 210915Z 29005KT 13/07 A2978 RMK A01 T01310072  RH  069%=      5-min Rain = 0
KMUS 210920Z 29005KT 13/07 A2979 RMK A01 T01270074  RH  072%=      5-min Rain = 0
KMUS 210925Z 29005KT 13/08 A2979 RMK A01 T01250076  RH  074%=      5-min Rain = 0
KMUS 210930Z 29005KT 13/07 A2979 RMK A01 T01250074  RH  073%=      5-min Rain = 0
KMUS 210935Z 29007KT 13/07 A2979 RMK A01 T01250074  RH  073%=      5-min Rain = 0
KMUS 210940Z 29007KT 12/08 A2979 RMK A01 T01240075  RH  074%=      5-min Rain = 0
KMUS 210945Z 29006KT 12/08 A2979 RMK A01 T01230077  RH  075%=      5-min Rain = 0
KMUS 210950Z 28006KT 12/08 A298 RMK A01 T01240076  RH  075%=      5-min Rain = 0
KMUS 210955Z 28007KT 12/07 A298 RMK A01 T01230072  RH  073%=      5-min Rain = 0
KMUS 211000Z 27007KT 13/07 A298 RMK A01 T01250070  RH  071%=      5-min Rain = 0
KMUS 211005Z 26007KT 13/07 A298 RMK A01 T01250070  RH  071%=      5-min Rain = 0
KMUS 211010Z 26006KT 12/07 A298 RMK A01 T01240070  RH  071%=      5-min Rain = 0
KMUS 211015Z 24006KT 12/07 A298 RMK A01 T01220072  RH  073%=      5-min Rain = 0
KMUS 211020Z 24006KT 12/07 A2981 RMK A01 T01200073  RH  075%=      5-min Rain = 0
KMUS 211025Z 24005KT 12/07 A2981 RMK A01 T01190072  RH  075%=      5-min Rain = 0
KMUS 211030Z 24005KT 12/07 A2981 RMK A01 T01200067  RH  072%=      5-min Rain = 0
KMUS 211035Z 23005KT 12/07 A2982 RMK A01 T01200065  RH  071%=      5-min Rain = 0
KMUS 211040Z 23005KT 12/06 A2982 RMK A01 T01180063  RH  071%=      5-min Rain = 0
KMUS 211045Z 26005KT 12/06 A2982 RMK A01 T01170059  RH  069%=      5-min Rain = 0
KMUS 211050Z 27006KT 12/06 A2982 RMK A01 T01190058  RH  068%=      5-min Rain = 0
KMUS 211055Z 27006KT 12/06 A2982 RMK A01 T01180060  RH  069%=      5-min Rain = 0
KMUS 211100Z 30006KT 11/07 A2982 RMK A01 T01140065  RH  074%=      5-min Rain = 0
KMUS 211105Z 29005KT 11/07 A2982 RMK A01 T01100067  RH  077%=      5-min Rain = 0
KMUS 211110Z 29006KT 11/07 A2982 RMK A01 T01070067  RH  079%=      5-min Rain = 0
KMUS 211115Z 29007KT 11/07 A2982 RMK A01 T01080065  RH  077%=      5-min Rain = 0
KMUS 211120Z 28007KT 11/06 A2982 RMK A01 T01090061  RH  074%=      5-min Rain = 0
KMUS 211125Z 26008KT 11/06 A2983 RMK A01 T01130058  RH  071%=      5-min Rain = 0
KMUS 211130Z 26009KT 12/05 A2983 RMK A01 T01190050  RH  064%=      5-min Rain = 0
KMUS 211135Z 24007KT 12/05 A2984 RMK A01 T01240050  RH  062%=      5-min Rain = 0
KMUS 211140Z 20008KT 11/06 A2985 RMK A01 T01140059  RH  071%=      5-min Rain = 0
KMUS 211145Z 17006KT 11/06 A2985 RMK A01 T01090060  RH  074%=      5-min Rain = 0
KMUS 211150Z 18003KT 11/06 A2985 RMK A01 T01100057  RH  072%=      5-min Rain = 0
KMUS 211155Z 16002KT 11/06 A2985 RMK A01 T01120055  RH  069%=      5-min Rain = 0
KMUS 211200Z 19002KT 12/05 A2986 RMK A01 T01170053  RH  066%=      5-min Rain = 0
KMUS 211205Z 19005KT 12/06 A2986 RMK A01 T01190057  RH  067%=      5-min Rain = 0
KMUS 211210Z 20005KT 12/06 A2986 RMK A01 T01190058  RH  067%=      5-min Rain = 0
KMUS 211215Z 21007KT 12/06 A2986 RMK A01 T01230056  RH  065%=      5-min Rain = 0
KMUS 211220Z 22008KT 13/05 A2986 RMK A01 T01340046  RH  056%=      5-min Rain = 0
KMUS 211225Z 21006KT 14/05 A2986 RMK A01 T01430049  RH  054%=      5-min Rain = 0
KMUS 211230Z 20007KT 15/05 A2987 RMK A01 T01450054  RH  056%=      5-min Rain = 0
KMUS 211235Z 19005KT 15/06 A2987 RMK A01 T01490055  RH  055%=      5-min Rain = 0
KMUS 211240Z 21006KT 15/05 A2987 RMK A01 T01530053  RH  052%=      5-min Rain = 0
KMUS 211245Z 22007KT 16/05 A2987 RMK A01 T01590048  RH  049%=      5-min Rain = 0
KMUS 211250Z 23006KT 17/05 A2987 RMK A01 T01650048  RH  047%=      5-min Rain = 0
KMUS 211255Z 23005KT 17/05 A2987 RMK A01 T01710050  RH  046%=      5-min Rain = 0
KMUS 211300Z 22005KT 18/05 A2987 RMK A01 T01750052  RH  045%=      5-min Rain = 0
KMUS 211305Z 22004KT 18/06 A2988 RMK A01 T01790057  RH  046%=      5-min Rain = 0
KMUS 211310Z 22004KT 18/06 A2988 RMK A01 T01830056  RH  044%=      5-min Rain = 0
KMUS 211315Z 22003KT 19/06 A2988 RMK A01 T01880057  RH  043%=      5-min Rain = 0
KMUS 211320Z 21006KT 19/05 A2989 RMK A01 T01930052  RH  040%=      5-min Rain = 0
KMUS 211325Z 20006KT 20/06 A2989 RMK A01 T01980055  RH  040%=      5-min Rain = 0
KMUS 211330Z 20007KT 20/05 A2989 RMK A01 T02030049  RH  037%=      5-min Rain = 0
KMUS 211335Z 21007KT 21/05 A2989 RMK A01 T02090045  RH  035%=      5-min Rain = 0
KMUS 211340Z 22007KT 22/04 A2989 RMK A01 T02150039  RH  032%=      5-min Rain = 0
KMUS 211345Z 22006KT 22/05 A2989 RMK A01 T02210045  RH  032%=      5-min Rain = 0
KMUS 211350Z 21007KT 23/04 A2989 RMK A01 T02270041  RH  030%=      5-min Rain = 0
KMUS 211355Z 21007KT 23/04 A299 RMK A01 T02280041  RH  030%=      5-min Rain = 0
KMUS 211400Z 22008KT 23/03 A299 RMK A01 T02340028  RH  026%=      5-min Rain = 0
KMUS 211405Z 23009KT 24/02 A299 RMK A01 T02410021  RH  024%=      5-min Rain = 0
KMUS 211410Z 23009KT 25/02 A299 RMK A01 T02460017  RH  023%=      5-min Rain = 0
KMUS 211415Z 22009KT 25/02 A299 RMK A01 T02480019  RH  023%=      5-min Rain = 0
KMUS 211420Z 23008KT 25/02 A299 RMK A01 T02500023  RH  023%=      5-min Rain = 0
KMUS 211425Z 24009KT 25/01 A299 RMK A01 T02540011  RH  021%=      5-min Rain = 0
KMUS 211430Z 24009KT 26/01 A299 RMK A01 T02570011  RH  020%=      5-min Rain = 0
KMUS 211435Z 24009KT 26/01 A2991 RMK A01 T02600007  RH  019%=      5-min Rain = 0
KMUS 211440Z 24009KT 26/01 A2991 RMK A01 T02620009  RH  020%=      5-min Rain = 0
KMUS 211445Z 25009KT 27/02 A2991 RMK A01 T02650015  RH  020%=      5-min Rain = 0
KMUS 211450Z 25009KT 27/01 A2991 RMK A01 T02670013  RH  019%=      5-min Rain = 0
KMUS 211455Z 24009KT 27/01 A2991 RMK A01 T02680010  RH  019%=      5-min Rain = 0
KMUS 211500Z 23009KT 27/01 A299 RMK A01 T02700011  RH  019%=      5-min Rain = 0
KMUS 211505Z 24009KT 27/01 A299 RMK A01 T02720006  RH  018%=      5-min Rain = 0
KMUS 211510Z 23010KT 27/01 A299 RMK A01 T02740006  RH  018%=      5-min Rain = 0
KMUS 211515Z 24008KT 28/02 A299 RMK A01 T02770016  RH  019%=      5-min Rain = 0
KMUS 211520Z 24008KT 28/02 A299 RMK A01 T02820017  RH  018%=      5-min Rain = 0
KMUS 211525Z 24009G14KT 28/00 A299 RMK A01 T02840003  RH  016%=      5-min Rain = 0
KMUS 211530Z 24010KT 29/M00 A299 RMK A01 T02881002  RH  015%=      5-min Rain = 0
KMUS 211535Z 24010G16KT 29/M01 A299 RMK A01 T02891005  RH  015%=      5-min Rain = 0
KMUS 211540Z 25011KT 29/M01 A299 RMK A01 T02901010  RH  014%=      5-min Rain = 0
KMUS 211545Z 27009KT 29/M00 A299 RMK A01 T02931001  RH  015%=      5-min Rain = 0
KMUS 211550Z 26012KT 29/M01 A299 RMK A01 T02931010  RH  014%=      5-min Rain = 0
KMUS 211555Z 26011KT 30/M00 A299 RMK A01 T02951004  RH  015%=      5-min Rain = 0
KMUS 211600Z 26011KT 30/00 A299 RMK A01 T02960001  RH  015%=      5-min Rain = 0
KMUS 211605Z 26011KT 30/M01 A299 RMK A01 T02971006  RH  014%=      5-min Rain = 0
KMUS 211610Z 26010KT 30/00 A299 RMK A01 T03000001  RH  015%=      5-min Rain = 0
KMUS 211615Z 28011KT 30/M01 A299 RMK A01 T03031005  RH  014%=      5-min Rain = 0
KMUS 211620Z 27011G16KT 30/M01 A299 RMK A01 T03031006  RH  014%=      5-min Rain = 0
KMUS 211625Z 27010KT 31/01 A299 RMK A01 T03060005  RH  015%=      5-min Rain = 0
KMUS 211630Z 26011G16KT 31/M00 A299 RMK A01 T03061002  RH  014%=      5-min Rain = 0
KMUS 211635Z 26010G16KT 31/M01 A299 RMK A01 T03071008  RH  013%=      5-min Rain = 0
KMUS 211640Z 26012KT 31/M01 A299 RMK A01 T03071008  RH  013%=      5-min Rain = 0
KMUS 211645Z 27010KT 31/M01 A299 RMK A01 T03081006  RH  013%=      5-min Rain = 0
KMUS 211650Z 26011KT 31/M00 A299 RMK A01 T03101003  RH  014%=      5-min Rain = 0
KMUS 211655Z 25012KT 31/M01 A299 RMK A01 T03111005  RH  013%=      5-min Rain = 0
KMUS 211700Z 26010G16KT 31/M01 A299 RMK A01 T03111007  RH  013%=      5-min Rain = 0
KMUS 211705Z 26011KT 31/M01 A299 RMK A01 T03121007  RH  013%=      5-min Rain = 0
KMUS 211710Z 24011G16KT 32/M01 A299 RMK A01 T03151006  RH  013%=      5-min Rain = 0
KMUS 211715Z 25011KT 32/M00 A299 RMK A01 T03161003  RH  013%=      5-min Rain = 0
KMUS 211720Z 25010KT 32/M01 A299 RMK A01 T03171006  RH  013%=      5-min Rain = 0
KMUS 211725Z 25010G17KT 32/M01 A299 RMK A01 T03171006  RH  013%=      5-min Rain = 0
KMUS 211730Z 25010G18KT 32/00 A299 RMK A01 T03200004  RH  013%=      5-min Rain = 0
KMUS 211735Z 23010G15KT 32/M01 A2989 RMK A01 T03191006  RH  013%=      5-min Rain = 0
KMUS 211740Z 26009G14KT 32/M00 A2989 RMK A01 T03191002  RH  013%=      5-min Rain = 0
KMUS 211745Z 25011G16KT 32/M00 A2989 RMK A01 T03201003  RH  013%=      5-min Rain = 0
KMUS 211750Z 23008KT 32/M01 A2989 RMK A01 T03191013  RH  012%=      5-min Rain = 0
KMUS 211755Z 23012G17KT 32/M01 A2989 RMK A01 T03221005  RH  012%=      5-min Rain = 0
KMUS 211800Z 22010G17KT 32/M01 A2989 RMK A01 T03241005  RH  012%=      5-min Rain = 0
KMUS 211805Z 25010KT 33/M00 A2989 RMK A01 T03251003  RH  012%=      5-min Rain = 0
KMUS 211810Z 24009G20KT 33/M00 A2988 RMK A01 T03251004  RH  012%=      5-min Rain = 0
KMUS 211815Z 24011G16KT 33/M01 A2988 RMK A01 T03281005  RH  012%=      5-min Rain = 0
KMUS 211820Z 23010KT 33/00 A2988 RMK A01 T03300002  RH  012%=      5-min Rain = 0
KMUS 211825Z 22007KT 33/M01 A2988 RMK A01 T03311005  RH  012%=      5-min Rain = 0
KMUS 211830Z 22009KT 33/M00 A2988 RMK A01 T03311001  RH  012%=      5-min Rain = 0
KMUS 211835Z 23008G13KT 33/M00 A2987 RMK A01 T03311002  RH  012%=      5-min Rain = 0
KMUS 211840Z 25013G19KT 33/M00 A2987 RMK A01 T03331001  RH  012%=      5-min Rain = 0
KMUS 211845Z 24012KT 33/M01 A2987 RMK A01 T03321006  RH  012%=      5-min Rain = 0
KMUS 211850Z 23010G17KT 33/M01 A2987 RMK A01 T03331006  RH  012%=      5-min Rain = 0
KMUS 211855Z 23009G16KT 33/M01 A2987 RMK A01 T03341005  RH  012%=      5-min Rain = 0
KMUS 211900Z 24009KT 34/M00 A2987 RMK A01 T03361004  RH  012%=      5-min Rain = 0
KMUS 211905Z 23011G19KT 34/M00 A2986 RMK A01 T03381003  RH  012%=      5-min Rain = 0
KMUS 211910Z 21015G20KT 34/M01 A2986 RMK A01 T03401011  RH  011%=      5-min Rain = 0
KMUS 211915Z 21014G19KT 34/M01 A2986 RMK A01 T03411006  RH  011%=      5-min Rain = 0
KMUS 211920Z 20012KT 34/M01 A2986 RMK A01 T03421006  RH  011%=      5-min Rain = 0
KMUS 211925Z 21011G17KT 34/M01 A2986 RMK A01 T03421008  RH  011%=      5-min Rain = 0
KMUS 211930Z 21014G21KT 34/M01 A2985 RMK A01 T03441010  RH  011%=      5-min Rain = 0
KMUS 211935Z 21012KT 35/M01 A2985 RMK A01 T03451009  RH  011%=      5-min Rain = 0
KMUS 211940Z 21014G21KT 35/00 A2985 RMK A01 T034800-0  RH  011%=      5-min Rain = 0
KMUS 211945Z 19015G21KT 35/00 A2985 RMK A01 T034800-0  RH  011%=      5-min Rain = 0
KMUS 211950Z 19011KT 35/M00 A2985 RMK A01 T03451001  RH  011%=      5-min Rain = 0
KMUS 212000Z 20015G23KT 35/01 A2985 RMK A01 T03480006  RH  012%=      5-min Rain = 0
KMUS 212005Z 19016KT 35/00 A2984 RMK A01 T03480001  RH  011%=      5-min Rain = 0
KMUS 212010Z 20016G23KT 35/01 A2984 RMK A01 T03480008  RH  012%=      5-min Rain = 0
KMUS 212015Z 20017KT 35/M00 A2984 RMK A01 T03491001  RH  011%=      5-min Rain = 0
KMUS 212020Z 21016G23KT 35/00 A2984 RMK A01 T03480000  RH  011%=      5-min Rain = 0
KMUS 212025Z 19022G27KT 35/M00 A2984 RMK A01 T03481002  RH  011%=      5-min Rain = 0
KMUS 212030Z 21021G28KT 35/00 A2984 RMK A01 T03480001  RH  011%=      5-min Rain = 0
KMUS 212035Z 21018G32KT 35/01 A2984 RMK A01 T03490006  RH  012%=      5-min Rain = 0
KMUS 212040Z 20015G22KT 35/01 A2984 RMK A01 T03500013  RH  012%=      5-min Rain = 0
KMUS 212045Z 21019KT 35/01 A2983 RMK A01 T03500011  RH  012%=      5-min Rain = 0
KMUS 212050Z 19017G24KT 35/01 A2983 RMK A01 T03490010  RH  012%=      5-min Rain = 0
KMUS 212055Z 21018G26KT 35/02 A2983 RMK A01 T03500016  RH  012%=      5-min Rain = 0
KMUS 212100Z 22018G24KT 35/01 A2983 RMK A01 T03500010  RH  012%=      5-min Rain = 0
KMUS 212105Z 21015G22KT 35/01 A2983 RMK A01 T03490012  RH  012%=      5-min Rain = 0
KMUS 212110Z 20016G22KT 35/02 A2983 RMK A01 T03500017  RH  012%=      5-min Rain = 0
KMUS 212115Z 21018G25KT 35/01 A2983 RMK A01 T03510011  RH  012%=      5-min Rain = 0
KMUS 212120Z 22017G24KT 35/01 A2982 RMK A01 T03510011  RH  012%=      5-min Rain = 0
KMUS 212125Z 21015G22KT 35/02 A2982 RMK A01 T03500016  RH  012%=      5-min Rain = 0
KMUS 212130Z 22014G20KT 35/01 A2982 RMK A01 T03510014  RH  012%=      5-min Rain = 0
KMUS 212135Z 21016G23KT 35/02 A2982 RMK A01 T03520018  RH  012%=      5-min Rain = 0
KMUS 212140Z 21013KT 35/02 A2981 RMK A01 T03540024  RH  013%=      5-min Rain = 0
KMUS 212145Z 20016G22KT 35/02 A2981 RMK A01 T03530015  RH  012%=      5-min Rain = 0
KMUS 212150Z 21015G22KT 35/02 A2981 RMK A01 T03540024  RH  013%=      5-min Rain = 0
KMUS 212155Z 21020G25KT 35/02 A298 RMK A01 T03540016  RH  012%=      5-min Rain = 0
KMUS 212200Z 21018G24KT 35/02 A298 RMK A01 T03540018  RH  012%=      5-min Rain = 0
KMUS 212205Z 20020G28KT 35/02 A298 RMK A01 T03530016  RH  012%=      5-min Rain = 0
KMUS 212210Z 20017G26KT 35/02 A298 RMK A01 T03520016  RH  012%=      5-min Rain = 0
KMUS 212215Z 21018G27KT 36/02 A2979 RMK A01 T03550020  RH  012%=      5-min Rain = 0
KMUS 212220Z 21020G27KT 36/02 A2979 RMK A01 T03560022  RH  013%=      5-min Rain = 0
KMUS 212225Z 22022G33KT 36/02 A2979 RMK A01 T03560015  RH  012%=      5-min Rain = 0
KMUS 212230Z 21020G27KT 36/02 A2979 RMK A01 T03560018  RH  012%=      5-min Rain = 0
KMUS 212235Z 22021G29KT 36/02 A2979 RMK A01 T03550015  RH  012%=      5-min Rain = 0
KMUS 212240Z 22018G25KT 36/02 A2979 RMK A01 T03550021  RH  012%=      5-min Rain = 0
KMUS 212245Z 20017G24KT 36/03 A2978 RMK A01 T03560026  RH  013%=      5-min Rain = 0
KMUS 212250Z 21019G26KT 36/02 A2978 RMK A01 T03550024  RH  013%=      5-min Rain = 0
KMUS 212255Z 21021G28KT 35/02 A2978 RMK A01 T03530018  RH  012%=      5-min Rain = 0
KMUS 212300Z 21021G29KT 35/02 A2978 RMK A01 T03530016  RH  012%=      5-min Rain = 0
KMUS 212305Z 21022G29KT 35/01 A2978 RMK A01 T03530013  RH  012%=      5-min Rain = 0
KMUS 212310Z 21021G29KT 35/01 A2978 RMK A01 T03530014  RH  012%=      5-min Rain = 0
KMUS 212315Z 22021G26KT 35/01 A2978 RMK A01 T03530011  RH  012%=      5-min Rain = 0
KMUS 212320Z 22019G28KT 35/01 A2978 RMK A01 T03520012  RH  012%=      5-min Rain = 0
KMUS 212325Z 21018G26KT 35/02 A2978 RMK A01 T03520018  RH  012%=      5-min Rain = 0
KMUS 212330Z 21019G24KT 35/02 A2978 RMK A01 T03510015  RH  012%=      5-min Rain = 0
KMUS 212335Z 21018G25KT 35/01 A2977 RMK A01 T03510014  RH  012%=      5-min Rain = 0
KMUS 212340Z 22021G28KT 35/01 A2977 RMK A01 T03510010  RH  012%=      5-min Rain = 0
KMUS 212345Z 22019G26KT 35/00 A2977 RMK A01 T03500002  RH  011%=      5-min Rain = 0
KMUS 212350Z 22016G24KT 35/01 A2977 RMK A01 T03490012  RH  012%=      5-min Rain = 0
KMUS 212355Z 22016G23KT 35/01 A2977 RMK A01 T03490013  RH  012%=      5-min Rain = 0
KMUS 220000Z 22017G24KT 35/01 A2977 RMK A01 T03480012  RH  012%=      5-min Rain = 0
KMUS 220005Z 21017G22KT 35/01 A2977 RMK A01 T03470014  RH  012%=      5-min Rain = 0
KMUS 220010Z 22019G27KT 35/00 A2977 RMK A01 T03460004  RH  012%=      5-min Rain = 0
KMUS 220015Z 21015G20KT 35/02 A2977 RMK A01 T03450015  RH  013%=      5-min Rain = 0
KMUS 220020Z 21017G24KT 34/01 A2977 RMK A01 T03440009  RH  012%=      5-min Rain = 0
KMUS 220025Z 21018G25KT 34/01 A2977 RMK A01 T03430008  RH  012%=      5-min Rain = 0
KMUS 220030Z 22018G24KT 34/01 A2977 RMK A01 T03430005  RH  012%=      5-min Rain = 0
KMUS 220035Z 22017G23KT 34/01 A2977 RMK A01 T03420005  RH  012%=      5-min Rain = 0
KMUS 220040Z 21015G22KT 34/01 A2977 RMK A01 T03400013  RH  013%=      5-min Rain = 0
KMUS 220045Z 21015G20KT 34/01 A2977 RMK A01 T03370014  RH  013%=      5-min Rain = 0
KMUS 220050Z 21015KT 34/01 A2977 RMK A01 T03380010  RH  013%=      5-min Rain = 0
KMUS 220055Z 21014G20KT 34/01 A2977 RMK A01 T03350011  RH  013%=      5-min Rain = 0
KMUS 220100Z 21015G20KT 33/01 A2978 RMK A01 T03330008  RH  013%=      5-min Rain = 0
KMUS 220105Z 20013G19KT 33/01 A2978 RMK A01 T03310010  RH  013%=      5-min Rain = 0
KMUS 220110Z 20012G17KT 33/01 A2978 RMK A01 T03270013  RH  014%=      5-min Rain = 0
KMUS 220115Z 21013KT 33/01 A2978 RMK A01 T03250010  RH  014%=      5-min Rain = 0
KMUS 220120Z 21011KT 32/01 A2978 RMK A01 T03210013  RH  014%=      5-min Rain = 0
KMUS 220125Z 21010KT 32/02 A2978 RMK A01 T03160019  RH  015%=      5-min Rain = 0
KMUS 220130Z 21009KT 31/03 A2978 RMK A01 T03100028  RH  017%=      5-min Rain = 0
KMUS 220135Z 21010KT 31/03 A2978 RMK A01 T03060027  RH  017%=      5-min Rain = 0
KMUS 220140Z 21009KT 30/03 A2978 RMK A01 T03020027  RH  018%=      5-min Rain = 0
KMUS 220145Z 21008KT 30/03 A2978 RMK A01 T02950032  RH  019%=      5-min Rain = 0
KMUS 220150Z 21008KT 29/03 A2978 RMK A01 T02890029  RH  019%=      5-min Rain = 0
KMUS 220155Z 21009KT 29/03 A2978 RMK A01 T02850028  RH  020%=      5-min Rain = 0
KMUS 220200Z 21008KT 28/03 A2978 RMK A01 T02800028  RH  020%=      5-min Rain = 0
KMUS 220205Z 21008KT 27/03 A2978 RMK A01 T02730033  RH  022%=      5-min Rain = 0
KMUS 220210Z 20008KT 26/04 A2978 RMK A01 T02640039  RH  024%=      5-min Rain = 0
KMUS 220215Z 20008KT 26/04 A2978 RMK A01 T02560043  RH  026%=      5-min Rain = 0
KMUS 220220Z 19008KT 25/04 A2979 RMK A01 T02490044  RH  027%=      5-min Rain = 0
KMUS 220225Z 19008KT 25/04 A2979 RMK A01 T02500041  RH  026%=      5-min Rain = 0
KMUS 220230Z 19008KT 25/04 A2979 RMK A01 T02530038  RH  025%=      5-min Rain = 0
KMUS 220235Z 19009KT 26/04 A298 RMK A01 T02550036  RH  025%=      5-min Rain = 0
KMUS 220240Z 20009KT 26/04 A298 RMK A01 T02570035  RH  024%=      5-min Rain = 0
KMUS 220245Z 19008KT 25/04 A298 RMK A01 T02530037  RH  025%=      5-min Rain = 0
KMUS 220250Z 19009KT 25/04 A2981 RMK A01 T02490039  RH  026%=      5-min Rain = 0
KMUS 220255Z 20009KT 25/04 A2981 RMK A01 T02480039  RH  026%=      5-min Rain = 0
KMUS 220300Z 20009KT 25/04 A2981 RMK A01 T02450040  RH  027%=      5-min Rain = 0
KMUS 220305Z 21009KT 24/04 A2981 RMK A01 T02440039  RH  027%=      5-min Rain = 0
KMUS 220310Z 22008KT 24/04 A2982 RMK A01 T02420040  RH  027%=      5-min Rain = 0
KMUS 220315Z 22009KT 24/04 A2982 RMK A01 T02380040  RH  028%=      5-min Rain = 0
KMUS 220320Z 21010KT 24/04 A2982 RMK A01 T02380039  RH  028%=      5-min Rain = 0
KMUS 220325Z 21010KT 24/04 A2982 RMK A01 T02410038  RH  027%=      5-min Rain = 0
KMUS 220330Z 21010KT 24/04 A2982 RMK A01 T02410038  RH  027%=      5-min Rain = 0
KMUS 220335Z 21010KT 24/04 A2982 RMK A01 T02410038  RH  027%=      5-min Rain = 0
KMUS 220340Z 21009KT 24/04 A2982 RMK A01 T02370041  RH  028%=      5-min Rain = 0
KMUS 220345Z 21009KT 23/04 A2982 RMK A01 T02340042  RH  029%=      5-min Rain = 0
KMUS 220350Z 21009KT 23/04 A2982 RMK A01 T02300044  RH  030%=      5-min Rain = 0
KMUS 220355Z 21009KT 23/05 A2983 RMK A01 T02260045  RH  031%=      5-min Rain = 0
KMUS 220400Z 21009KT 23/04 A2983 RMK A01 T02260043  RH  031%=      5-min Rain = 0
KMUS 220405Z 21008KT 23/04 A2983 RMK A01 T02280041  RH  030%=      5-min Rain = 0
KMUS 220410Z 20008KT 23/04 A2983 RMK A01 T02250043  RH  031%=      5-min Rain = 0
KMUS 220415Z 20007KT 22/04 A2983 RMK A01 T02230042  RH  031%=      5-min Rain = 0
KMUS 220420Z 20006KT 22/05 A2983 RMK A01 T02170052  RH  035%=      5-min Rain = 0
KMUS 220425Z 19007KT 21/06 A2983 RMK A01 T02050064  RH  041%=      5-min Rain = 0
KMUS 220430Z 19007KT 20/07 A2983 RMK A01 T01990067  RH  043%=      5-min Rain = 0
KMUS 220435Z 20007KT 20/07 A2983 RMK A01 T01960067  RH  044%=      5-min Rain = 0
KMUS 220440Z 21008KT 19/07 A2983 RMK A01 T01930068  RH  045%=      5-min Rain = 0
KMUS 220445Z 20008KT 19/07 A2983 RMK A01 T01910067  RH  046%=      5-min Rain = 0
KMUS 220450Z 21008KT 19/06 A2983 RMK A01 T01930064  RH  044%=      5-min Rain = 0
KMUS 220455Z 21008KT 19/06 A2983 RMK A01 T01940060  RH  042%=      5-min Rain = 0

Page generated in 0.0161 seconds.